sensor_id;sensor_type;location;lat;lon;timestamp;P1;durP1;ratioP1;P2;durP2;ratioP2
7613;SDS011;3848;42.016;23.098;2022-09-16T00:00:55;21.23;;;20.10;;
7613;SDS011;3848;42.016;23.098;2022-09-16T00:03:22;21.00;;;20.00;;
7613;SDS011;3848;42.016;23.098;2022-09-16T00:05:50;24.30;;;23.00;;
7613;SDS011;3848;42.016;23.098;2022-09-16T00:08:18;22.07;;;21.00;;
7613;SDS011;3848;42.016;23.098;2022-09-16T00:10:45;22.60;;;21.57;;
7613;SDS011;3848;42.016;23.098;2022-09-16T00:13:12;22.93;;;21.73;;
7613;SDS011;3848;42.016;23.098;2022-09-16T00:15:40;22.83;;;21.63;;
7613;SDS011;3848;42.016;23.098;2022-09-16T00:18:09;22.07;;;20.93;;
7613;SDS011;3848;42.016;23.098;2022-09-16T00:20:41;22.17;;;20.77;;
7613;SDS011;3848;42.016;23.098;2022-09-16T00:23:08;19.90;;;19.00;;
7613;SDS011;3848;42.016;23.098;2022-09-16T00:25:35;20.70;;;19.70;;
7613;SDS011;3848;42.016;23.098;2022-09-16T00:28:02;21.50;;;20.33;;
7613;SDS011;3848;42.016;23.098;2022-09-16T00:30:29;19.57;;;18.67;;
7613;SDS011;3848;42.016;23.098;2022-09-16T00:32:55;20.07;;;18.97;;
7613;SDS011;3848;42.016;23.098;2022-09-16T00:35:24;19.13;;;18.07;;
7613;SDS011;3848;42.016;23.098;2022-09-16T00:37:50;15.83;;;15.13;;
7613;SDS011;3848;42.016;23.098;2022-09-16T00:40:17;17.83;;;16.87;;
7613;SDS011;3848;42.016;23.098;2022-09-16T00:42:44;18.03;;;17.20;;
7613;SDS011;3848;42.016;23.098;2022-09-16T00:45:13;16.53;;;15.73;;
7613;SDS011;3848;42.016;23.098;2022-09-16T00:47:42;17.57;;;16.63;;
7613;SDS011;3848;42.016;23.098;2022-09-16T00:50:13;15.10;;;14.40;;
7613;SDS011;3848;42.016;23.098;2022-09-16T00:52:45;13.97;;;13.37;;
7613;SDS011;3848;42.016;23.098;2022-09-16T00:55:14;15.13;;;14.10;;
7613;SDS011;3848;42.016;23.098;2022-09-16T00:57:45;15.03;;;14.33;;
7613;SDS011;3848;42.016;23.098;2022-09-16T01:00:13;15.07;;;14.27;;
7613;SDS011;3848;42.016;23.098;2022-09-16T01:02:40;14.70;;;13.90;;
7613;SDS011;3848;42.016;23.098;2022-09-16T01:05:09;14.67;;;13.87;;
7613;SDS011;3848;42.016;23.098;2022-09-16T01:07:41;14.03;;;13.33;;
7613;SDS011;3848;42.016;23.098;2022-09-16T01:10:12;14.20;;;13.60;;
7613;SDS011;3848;42.016;23.098;2022-09-16T01:12:40;13.23;;;12.63;;
7613;SDS011;3848;42.016;23.098;2022-09-16T01:15:09;13.60;;;13.00;;
7613;SDS011;3848;42.016;23.098;2022-09-16T01:24:01;11.73;;;11.13;;
7613;SDS011;3848;42.016;23.098;2022-09-16T01:27:06;11.63;;;11.13;;
7613;SDS011;3848;42.016;23.098;2022-09-16T01:30:01;12.30;;;11.80;;
7613;SDS011;3848;42.016;23.098;2022-09-16T01:32:43;12.40;;;11.80;;
7613;SDS011;3848;42.016;23.098;2022-09-16T01:35:19;11.83;;;11.33;;
7613;SDS011;3848;42.016;23.098;2022-09-16T01:37:57;13.13;;;12.43;;
7613;SDS011;3848;42.016;23.098;2022-09-16T01:40:37;12.43;;;11.87;;
7613;SDS011;3848;42.016;23.098;2022-09-16T01:43:16;11.37;;;10.87;;
7613;SDS011;3848;42.016;23.098;2022-09-16T01:45:48;10.80;;;10.30;;
7613;SDS011;3848;42.016;23.098;2022-09-16T01:48:21;11.80;;;11.20;;
7613;SDS011;3848;42.016;23.098;2022-09-16T01:50:54;11.13;;;10.63;;
7613;SDS011;3848;42.016;23.098;2022-09-16T01:53:26;11.23;;;10.73;;
7613;SDS011;3848;42.016;23.098;2022-09-16T01:55:59;11.77;;;11.17;;
7613;SDS011;3848;42.016;23.098;2022-09-16T01:58:35;11.40;;;10.90;;
7613;SDS011;3848;42.016;23.098;2022-09-16T02:01:07;14.10;;;13.40;;
7613;SDS011;3848;42.016;23.098;2022-09-16T02:03:39;14.53;;;13.07;;
7613;SDS011;3848;42.016;23.098;2022-09-16T02:06:10;12.67;;;12.07;;
7613;SDS011;3848;42.016;23.098;2022-09-16T02:08:42;12.70;;;12.10;;
7613;SDS011;3848;42.016;23.098;2022-09-16T02:11:15;14.50;;;13.80;;
7613;SDS011;3848;42.016;23.098;2022-09-16T02:13:44;15.80;;;15.10;;
7613;SDS011;3848;42.016;23.098;2022-09-16T02:16:16;14.80;;;14.10;;
7613;SDS011;3848;42.016;23.098;2022-09-16T02:18:50;14.60;;;13.40;;
7613;SDS011;3848;42.016;23.098;2022-09-16T02:21:20;13.63;;;12.93;;
7613;SDS011;3848;42.016;23.098;2022-09-16T02:23:51;16.33;;;15.43;;
7613;SDS011;3848;42.016;23.098;2022-09-16T02:26:23;15.93;;;15.13;;
7613;SDS011;3848;42.016;23.098;2022-09-16T02:28:54;16.70;;;15.90;;
7613;SDS011;3848;42.016;23.098;2022-09-16T02:31:23;18.50;;;17.27;;
7613;SDS011;3848;42.016;23.098;2022-09-16T02:33:56;16.40;;;15.60;;
7613;SDS011;3848;42.016;23.098;2022-09-16T02:36:28;17.27;;;16.10;;
7613;SDS011;3848;42.016;23.098;2022-09-16T02:38:58;14.60;;;13.93;;
7613;SDS011;3848;42.016;23.098;2022-09-16T02:41:32;15.33;;;14.63;;
7613;SDS011;3848;42.016;23.098;2022-09-16T02:44:00;15.40;;;14.33;;
7613;SDS011;3848;42.016;23.098;2022-09-16T02:46:29;16.43;;;15.63;;
7613;SDS011;3848;42.016;23.098;2022-09-16T02:49:03;16.83;;;15.13;;
7613;SDS011;3848;42.016;23.098;2022-09-16T02:51:40;17.77;;;16.73;;
7613;SDS011;3848;42.016;23.098;2022-09-16T02:54:13;23.63;;;22.33;;
7613;SDS011;3848;42.016;23.098;2022-09-16T02:56:47;29.93;;;24.77;;
7613;SDS011;3848;42.016;23.098;2022-09-16T02:59:14;19.97;;;18.80;;
7613;SDS011;3848;42.016;23.098;2022-09-16T03:01:43;10.17;;;9.67;;
7613;SDS011;3848;42.016;23.098;2022-09-16T03:04:13;10.57;;;10.00;;
7613;SDS011;3848;42.016;23.098;2022-09-16T03:06:41;10.47;;;9.97;;
7613;SDS011;3848;42.016;23.098;2022-09-16T03:09:09;10.47;;;9.80;;
7613;SDS011;3848;42.016;23.098;2022-09-16T03:11:44;10.70;;;10.03;;
7613;SDS011;3848;42.016;23.098;2022-09-16T03:14:24;11.37;;;10.23;;
7613;SDS011;3848;42.016;23.098;2022-09-16T03:17:17;10.00;;;9.60;;
7613;SDS011;3848;42.016;23.098;2022-09-16T03:20:00;10.17;;;9.73;;
7613;SDS011;3848;42.016;23.098;2022-09-16T03:22:39;10.40;;;9.80;;
7613;SDS011;3848;42.016;23.098;2022-09-16T03:25:17;16.03;;;10.83;;
7613;SDS011;3848;42.016;23.098;2022-09-16T03:27:54;10.90;;;10.40;;
7613;SDS011;3848;42.016;23.098;2022-09-16T03:30:28;10.27;;;9.77;;
7613;SDS011;3848;42.016;23.098;2022-09-16T03:32:59;9.77;;;9.37;;
7613;SDS011;3848;42.016;23.098;2022-09-16T03:35:33;9.80;;;9.40;;
7613;SDS011;3848;42.016;23.098;2022-09-16T03:38:07;10.37;;;9.77;;
7613;SDS011;3848;42.016;23.098;2022-09-16T03:40:36;10.37;;;9.67;;
7613;SDS011;3848;42.016;23.098;2022-09-16T03:43:08;11.17;;;10.47;;
7613;SDS011;3848;42.016;23.098;2022-09-16T03:45:36;10.30;;;9.80;;
7613;SDS011;3848;42.016;23.098;2022-09-16T03:48:04;9.67;;;9.27;;
7613;SDS011;3848;42.016;23.098;2022-09-16T03:50:33;10.53;;;10.03;;
7613;SDS011;3848;42.016;23.098;2022-09-16T03:53:00;10.83;;;10.23;;
7613;SDS011;3848;42.016;23.098;2022-09-16T03:55:27;9.27;;;8.87;;
7613;SDS011;3848;42.016;23.098;2022-09-16T03:57:54;10.47;;;9.97;;
7613;SDS011;3848;42.016;23.098;2022-09-16T04:00:21;9.97;;;9.47;;
7613;SDS011;3848;42.016;23.098;2022-09-16T04:02:48;10.00;;;9.50;;
7613;SDS011;3848;42.016;23.098;2022-09-16T04:05:15;11.23;;;10.07;;
7613;SDS011;3848;42.016;23.098;2022-09-16T04:07:43;9.43;;;9.03;;
7613;SDS011;3848;42.016;23.098;2022-09-16T04:10:10;12.10;;;11.10;;
7613;SDS011;3848;42.016;23.098;2022-09-16T04:12:37;12.03;;;11.17;;
7613;SDS011;3848;42.016;23.098;2022-09-16T04:15:04;19.33;;;18.33;;
7613;SDS011;3848;42.016;23.098;2022-09-16T04:17:31;12.77;;;12.10;;
7613;SDS011;3848;42.016;23.098;2022-09-16T04:19:59;10.97;;;10.47;;
7613;SDS011;3848;42.016;23.098;2022-09-16T04:22:26;17.70;;;16.77;;
7613;SDS011;3848;42.016;23.098;2022-09-16T04:24:55;12.23;;;11.50;;
7613;SDS011;3848;42.016;23.098;2022-09-16T04:27:22;10.17;;;9.73;;
7613;SDS011;3848;42.016;23.098;2022-09-16T04:29:49;9.87;;;9.37;;
7613;SDS011;3848;42.016;23.098;2022-09-16T04:32:16;9.93;;;9.47;;
7613;SDS011;3848;42.016;23.098;2022-09-16T04:34:43;9.70;;;9.10;;
7613;SDS011;3848;42.016;23.098;2022-09-16T04:37:10;9.80;;;9.23;;
7613;SDS011;3848;42.016;23.098;2022-09-16T04:39:36;10.77;;;10.17;;
7613;SDS011;3848;42.016;23.098;2022-09-16T04:42:05;11.13;;;10.43;;
7613;SDS011;3848;42.016;23.098;2022-09-16T04:44:32;10.30;;;9.80;;
7613;SDS011;3848;42.016;23.098;2022-09-16T04:46:58;10.27;;;9.67;;
7613;SDS011;3848;42.016;23.098;2022-09-16T04:49:25;10.00;;;9.37;;
7613;SDS011;3848;42.016;23.098;2022-09-16T04:51:52;9.90;;;9.40;;
7613;SDS011;3848;42.016;23.098;2022-09-16T04:54:19;12.27;;;11.53;;
7613;SDS011;3848;42.016;23.098;2022-09-16T04:56:45;9.73;;;9.33;;
7613;SDS011;3848;42.016;23.098;2022-09-16T04:59:14;9.93;;;9.53;;
7613;SDS011;3848;42.016;23.098;2022-09-16T05:01:41;10.13;;;9.63;;
7613;SDS011;3848;42.016;23.098;2022-09-16T05:04:08;11.17;;;10.03;;
7613;SDS011;3848;42.016;23.098;2022-09-16T05:06:36;10.43;;;9.83;;
7613;SDS011;3848;42.016;23.098;2022-09-16T05:09:05;11.90;;;11.20;;
7613;SDS011;3848;42.016;23.098;2022-09-16T05:11:32;12.33;;;11.13;;
7613;SDS011;3848;42.016;23.098;2022-09-16T05:14:01;12.37;;;11.67;;
7613;SDS011;3848;42.016;23.098;2022-09-16T05:16:31;12.27;;;11.67;;
7613;SDS011;3848;42.016;23.098;2022-09-16T05:18:58;10.47;;;9.97;;
7613;SDS011;3848;42.016;23.098;2022-09-16T05:21:28;11.07;;;10.53;;
7613;SDS011;3848;42.016;23.098;2022-09-16T05:23:58;11.83;;;11.20;;
7613;SDS011;3848;42.016;23.098;2022-09-16T05:26:27;14.83;;;14.13;;
7613;SDS011;3848;42.016;23.098;2022-09-16T05:28:58;15.20;;;13.90;;
7613;SDS011;3848;42.016;23.098;2022-09-16T05:31:28;12.73;;;12.03;;
7613;SDS011;3848;42.016;23.098;2022-09-16T05:33:58;11.63;;;11.03;;
7613;SDS011;3848;42.016;23.098;2022-09-16T05:36:26;11.67;;;10.97;;
7613;SDS011;3848;42.016;23.098;2022-09-16T05:38:55;10.43;;;9.93;;
7613;SDS011;3848;42.016;23.098;2022-09-16T05:41:22;10.37;;;9.87;;
7613;SDS011;3848;42.016;23.098;2022-09-16T05:43:49;10.33;;;9.73;;
7613;SDS011;3848;42.016;23.098;2022-09-16T05:46:17;15.57;;;9.77;;
7613;SDS011;3848;42.016;23.098;2022-09-16T05:48:45;11.53;;;10.87;;
7613;SDS011;3848;42.016;23.098;2022-09-16T05:51:15;10.47;;;9.90;;
7613;SDS011;3848;42.016;23.098;2022-09-16T05:53:43;10.67;;;10.17;;
7613;SDS011;3848;42.016;23.098;2022-09-16T05:56:11;11.10;;;10.60;;
7613;SDS011;3848;42.016;23.098;2022-09-16T05:58:39;10.70;;;10.20;;
7613;SDS011;3848;42.016;23.098;2022-09-16T06:01:07;12.37;;;11.73;;
7613;SDS011;3848;42.016;23.098;2022-09-16T06:03:36;10.97;;;10.47;;
7613;SDS011;3848;42.016;23.098;2022-09-16T06:06:05;12.33;;;11.70;;
7613;SDS011;3848;42.016;23.098;2022-09-16T06:08:38;13.50;;;12.70;;
7613;SDS011;3848;42.016;23.098;2022-09-16T06:11:06;11.80;;;11.27;;
7613;SDS011;3848;42.016;23.098;2022-09-16T06:13:34;12.20;;;11.60;;
7613;SDS011;3848;42.016;23.098;2022-09-16T06:16:02;12.57;;;11.87;;
7613;SDS011;3848;42.016;23.098;2022-09-16T06:18:30;10.83;;;10.23;;
7613;SDS011;3848;42.016;23.098;2022-09-16T06:21:01;10.13;;;9.63;;
7613;SDS011;3848;42.016;23.098;2022-09-16T06:23:29;10.40;;;9.90;;
7613;SDS011;3848;42.016;23.098;2022-09-16T06:26:02;10.57;;;9.77;;
7613;SDS011;3848;42.016;23.098;2022-09-16T06:28:30;10.60;;;10.00;;
7613;SDS011;3848;42.016;23.098;2022-09-16T06:31:00;11.33;;;10.63;;
7613;SDS011;3848;42.016;23.098;2022-09-16T06:33:29;10.23;;;9.83;;
7613;SDS011;3848;42.016;23.098;2022-09-16T06:35:56;9.63;;;9.10;;
7613;SDS011;3848;42.016;23.098;2022-09-16T06:38:23;9.77;;;9.27;;
7613;SDS011;3848;42.016;23.098;2022-09-16T06:40:50;11.27;;;10.67;;
7613;SDS011;3848;42.016;23.098;2022-09-16T06:43:18;11.10;;;10.07;;
7613;SDS011;3848;42.016;23.098;2022-09-16T06:45:45;10.07;;;9.57;;
7613;SDS011;3848;42.016;23.098;2022-09-16T06:48:12;9.97;;;9.40;;
7613;SDS011;3848;42.016;23.098;2022-09-16T06:50:39;11.37;;;10.57;;
7613;SDS011;3848;42.016;23.098;2022-09-16T06:53:06;8.70;;;8.30;;
7613;SDS011;3848;42.016;23.098;2022-09-16T06:55:33;9.73;;;9.23;;
7613;SDS011;3848;42.016;23.098;2022-09-16T06:58:00;10.00;;;9.50;;
7613;SDS011;3848;42.016;23.098;2022-09-16T07:00:28;13.30;;;12.57;;
7613;SDS011;3848;42.016;23.098;2022-09-16T07:02:55;13.33;;;12.57;;
7613;SDS011;3848;42.016;23.098;2022-09-16T07:05:22;15.97;;;15.07;;
7613;SDS011;3848;42.016;23.098;2022-09-16T07:07:49;13.33;;;12.40;;
7613;SDS011;3848;42.016;23.098;2022-09-16T07:10:17;17.63;;;16.63;;
7613;SDS011;3848;42.016;23.098;2022-09-16T07:12:43;16.00;;;14.87;;
7613;SDS011;3848;42.016;23.098;2022-09-16T07:15:10;16.67;;;15.77;;
7613;SDS011;3848;42.016;23.098;2022-09-16T07:17:39;15.83;;;15.07;;
7613;SDS011;3848;42.016;23.098;2022-09-16T07:20:06;16.87;;;16.07;;
7613;SDS011;3848;42.016;23.098;2022-09-16T07:22:33;16.40;;;15.57;;
7613;SDS011;3848;42.016;23.098;2022-09-16T07:25:00;21.57;;;18.77;;
7613;SDS011;3848;42.016;23.098;2022-09-16T07:27:27;17.10;;;16.30;;
7613;SDS011;3848;42.016;23.098;2022-09-16T07:29:55;16.63;;;15.73;;
7613;SDS011;3848;42.016;23.098;2022-09-16T07:32:22;18.20;;;16.97;;
7613;SDS011;3848;42.016;23.098;2022-09-16T07:34:50;17.57;;;16.77;;
7613;SDS011;3848;42.016;23.098;2022-09-16T07:37:18;18.90;;;17.97;;
7613;SDS011;3848;42.016;23.098;2022-09-16T07:39:46;18.00;;;17.00;;
7613;SDS011;3848;42.016;23.098;2022-09-16T07:42:13;15.87;;;15.10;;
7613;SDS011;3848;42.016;23.098;2022-09-16T07:44:40;16.47;;;15.43;;
7613;SDS011;3848;42.016;23.098;2022-09-16T07:47:07;18.13;;;17.07;;
7613;SDS011;3848;42.016;23.098;2022-09-16T07:49:34;22.43;;;15.00;;
7613;SDS011;3848;42.016;23.098;2022-09-16T07:52:02;18.17;;;17.13;;
7613;SDS011;3848;42.016;23.098;2022-09-16T07:54:29;17.03;;;16.23;;
7613;SDS011;3848;42.016;23.098;2022-09-16T07:56:56;18.87;;;17.70;;
7613;SDS011;3848;42.016;23.098;2022-09-16T07:59:23;17.00;;;16.20;;
7613;SDS011;3848;42.016;23.098;2022-09-16T08:01:49;21.70;;;20.60;;
7613;SDS011;3848;42.016;23.098;2022-09-16T08:04:17;19.53;;;17.37;;
7613;SDS011;3848;42.016;23.098;2022-09-16T08:06:44;18.27;;;16.80;;
7613;SDS011;3848;42.016;23.098;2022-09-16T08:09:13;13.90;;;13.20;;
7613;SDS011;3848;42.016;23.098;2022-09-16T08:11:40;14.63;;;13.83;;
7613;SDS011;3848;42.016;23.098;2022-09-16T08:14:07;13.43;;;12.53;;
7613;SDS011;3848;42.016;23.098;2022-09-16T08:16:33;13.73;;;12.80;;
7613;SDS011;3848;42.016;23.098;2022-09-16T08:19:00;20.47;;;19.37;;
7613;SDS011;3848;42.016;23.098;2022-09-16T08:21:27;15.27;;;14.50;;
7613;SDS011;3848;42.016;23.098;2022-09-16T08:23:55;14.77;;;14.07;;
7613;SDS011;3848;42.016;23.098;2022-09-16T08:26:23;15.67;;;14.67;;
7613;SDS011;3848;42.016;23.098;2022-09-16T08:28:50;20.23;;;19.20;;
7613;SDS011;3848;42.016;23.098;2022-09-16T08:31:18;14.70;;;14.00;;
7613;SDS011;3848;42.016;23.098;2022-09-16T08:33:46;11.73;;;11.03;;
7613;SDS011;3848;42.016;23.098;2022-09-16T08:36:14;12.23;;;11.33;;
7613;SDS011;3848;42.016;23.098;2022-09-16T08:38:43;10.17;;;9.60;;
7613;SDS011;3848;42.016;23.098;2022-09-16T08:41:17;9.10;;;8.53;;
7613;SDS011;3848;42.016;23.098;2022-09-16T08:44:01;9.23;;;8.63;;
7613;SDS011;3848;42.016;23.098;2022-09-16T08:46:35;9.27;;;8.87;;
7613;SDS011;3848;42.016;23.098;2022-09-16T08:49:13;11.17;;;10.57;;
7613;SDS011;3848;42.016;23.098;2022-09-16T08:51:46;8.73;;;8.23;;
7613;SDS011;3848;42.016;23.098;2022-09-16T08:54:17;9.50;;;9.00;;
7613;SDS011;3848;42.016;23.098;2022-09-16T08:56:54;9.27;;;8.77;;
7613;SDS011;3848;42.016;23.098;2022-09-16T08:59:27;9.27;;;8.80;;
7613;SDS011;3848;42.016;23.098;2022-09-16T09:02:00;11.33;;;10.77;;
7613;SDS011;3848;42.016;23.098;2022-09-16T09:04:38;11.87;;;11.13;;
7613;SDS011;3848;42.016;23.098;2022-09-16T09:07:07;11.00;;;10.50;;
7613;SDS011;3848;42.016;23.098;2022-09-16T09:09:46;9.93;;;9.50;;
7613;SDS011;3848;42.016;23.098;2022-09-16T09:12:23;11.13;;;10.63;;
7613;SDS011;3848;42.016;23.098;2022-09-16T09:15:03;11.63;;;10.93;;
7613;SDS011;3848;42.016;23.098;2022-09-16T09:17:45;11.17;;;10.57;;
7613;SDS011;3848;42.016;23.098;2022-09-16T09:20:23;12.67;;;11.67;;
7613;SDS011;3848;42.016;23.098;2022-09-16T09:23:06;11.87;;;11.20;;
7613;SDS011;3848;42.016;23.098;2022-09-16T09:25:43;11.13;;;10.17;;
7613;SDS011;3848;42.016;23.098;2022-09-16T09:28:30;11.60;;;11.00;;
7613;SDS011;3848;42.016;23.098;2022-09-16T09:31:17;10.73;;;10.23;;
7613;SDS011;3848;42.016;23.098;2022-09-16T09:33:54;11.27;;;10.77;;
7613;SDS011;3848;42.016;23.098;2022-09-16T09:36:33;12.03;;;11.43;;
7613;SDS011;3848;42.016;23.098;2022-09-16T09:39:14;11.13;;;10.63;;
7613;SDS011;3848;42.016;23.098;2022-09-16T09:41:54;12.27;;;11.67;;
7613;SDS011;3848;42.016;23.098;2022-09-16T09:44:32;12.52;;;11.93;;
7613;SDS011;3848;42.016;23.098;2022-09-16T09:47:13;11.85;;;10.77;;
7613;SDS011;3848;42.016;23.098;2022-09-16T09:49:45;10.10;;;9.67;;
7613;SDS011;3848;42.016;23.098;2022-09-16T09:52:16;11.98;;;11.27;;
7613;SDS011;3848;42.016;23.098;2022-09-16T09:54:47;10.25;;;9.75;;
7613;SDS011;3848;42.016;23.098;2022-09-16T09:57:18;9.23;;;8.80;;
7613;SDS011;3848;42.016;23.098;2022-09-16T09:59:54;10.77;;;10.05;;
7613;SDS011;3848;42.016;23.098;2022-09-16T10:02:26;10.50;;;9.90;;
7613;SDS011;3848;42.016;23.098;2022-09-16T10:04:52;9.07;;;8.68;;
7613;SDS011;3848;42.016;23.098;2022-09-16T10:07:20;11.00;;;10.30;;
7613;SDS011;3848;42.016;23.098;2022-09-16T10:09:49;8.57;;;8.18;;
7613;SDS011;3848;42.016;23.098;2022-09-16T10:12:25;8.85;;;8.35;;
7613;SDS011;3848;42.016;23.098;2022-09-16T10:14:55;8.88;;;8.48;;
7613;SDS011;3848;42.016;23.098;2022-09-16T10:17:22;8.90;;;8.50;;
7613;SDS011;3848;42.016;23.098;2022-09-16T10:19:51;9.45;;;8.93;;
7613;SDS011;3848;42.016;23.098;2022-09-16T10:22:20;8.65;;;8.25;;
7613;SDS011;3848;42.016;23.098;2022-09-16T10:24:54;9.98;;;9.48;;
7613;SDS011;3848;42.016;23.098;2022-09-16T10:27:23;11.02;;;10.05;;
7613;SDS011;3848;42.016;23.098;2022-09-16T10:30:08;10.65;;;10.13;;
7613;SDS011;3848;42.016;23.098;2022-09-16T10:32:44;10.23;;;9.73;;
7613;SDS011;3848;42.016;23.098;2022-09-16T10:35:17;11.35;;;10.75;;
7613;SDS011;3848;42.016;23.098;2022-09-16T10:37:51;10.88;;;10.32;;
7613;SDS011;3848;42.016;23.098;2022-09-16T10:40:20;11.35;;;10.75;;
7613;SDS011;3848;42.016;23.098;2022-09-16T10:42:49;11.35;;;10.85;;
7613;SDS011;3848;42.016;23.098;2022-09-16T10:45:23;11.60;;;11.00;;
7613;SDS011;3848;42.016;23.098;2022-09-16T10:47:53;11.73;;;11.13;;
7613;SDS011;3848;42.016;23.098;2022-09-16T10:50:22;12.00;;;11.20;;
7613;SDS011;3848;42.016;23.098;2022-09-16T10:52:50;12.23;;;11.57;;
7613;SDS011;3848;42.016;23.098;2022-09-16T10:55:21;11.03;;;10.53;;
7613;SDS011;3848;42.016;23.098;2022-09-16T10:57:51;10.27;;;9.47;;
7613;SDS011;3848;42.016;23.098;2022-09-16T11:00:19;10.23;;;9.73;;
7613;SDS011;3848;42.016;23.098;2022-09-16T11:02:56;10.67;;;10.10;;
7613;SDS011;3848;42.016;23.098;2022-09-16T11:05:47;12.87;;;11.63;;
7613;SDS011;3848;42.016;23.098;2022-09-16T11:08:25;17.00;;;9.43;;
7613;SDS011;3848;42.016;23.098;2022-09-16T11:11:07;10.43;;;9.80;;
7613;SDS011;3848;42.016;23.098;2022-09-16T11:13:45;11.03;;;10.27;;
7613;SDS011;3848;42.016;23.098;2022-09-16T11:16:30;10.43;;;9.93;;
7613;SDS011;3848;42.016;23.098;2022-09-16T11:19:19;11.93;;;11.23;;
7613;SDS011;3848;42.016;23.098;2022-09-16T11:22:03;11.23;;;10.73;;
7613;SDS011;3848;42.016;23.098;2022-09-16T11:24:43;12.00;;;11.40;;
7613;SDS011;3848;42.016;23.098;2022-09-16T11:27:20;15.43;;;14.53;;
7613;SDS011;3848;42.016;23.098;2022-09-16T11:30:01;13.40;;;12.70;;
7613;SDS011;3848;42.016;23.098;2022-09-16T11:35:45;15.27;;;14.47;;
7613;SDS011;3848;42.016;23.098;2022-09-16T11:38:28;12.27;;;11.67;;
7613;SDS011;3848;42.016;23.098;2022-09-16T11:41:04;12.60;;;11.70;;
7613;SDS011;3848;42.016;23.098;2022-09-16T11:43:46;11.83;;;11.23;;
7613;SDS011;3848;42.016;23.098;2022-09-16T11:46:21;9.27;;;8.67;;
7613;SDS011;3848;42.016;23.098;2022-09-16T11:48:58;12.47;;;11.47;;
7613;SDS011;3848;42.016;23.098;2022-09-16T11:51:49;9.90;;;9.40;;
7613;SDS011;3848;42.016;23.098;2022-09-16T11:57:26;10.20;;;9.53;;
7613;SDS011;3848;42.016;23.098;2022-09-16T11:59:56;9.07;;;8.67;;
7613;SDS011;3848;42.016;23.098;2022-09-16T12:02:27;9.53;;;8.80;;
7613;SDS011;3848;42.016;23.098;2022-09-16T12:05:00;11.30;;;10.60;;
7613;SDS011;3848;42.016;23.098;2022-09-16T12:07:38;10.30;;;9.40;;
7613;SDS011;3848;42.016;23.098;2022-09-16T12:10:13;11.47;;;10.90;;
7613;SDS011;3848;42.016;23.098;2022-09-16T12:12:45;13.27;;;12.47;;
7613;SDS011;3848;42.016;23.098;2022-09-16T12:15:17;13.83;;;13.17;;
7613;SDS011;3848;42.016;23.098;2022-09-16T12:17:49;13.93;;;13.23;;
7613;SDS011;3848;42.016;23.098;2022-09-16T12:20:19;12.87;;;12.27;;
7613;SDS011;3848;42.016;23.098;2022-09-16T12:22:53;14.97;;;14.27;;
7613;SDS011;3848;42.016;23.098;2022-09-16T12:25:24;13.67;;;13.07;;
7613;SDS011;3848;42.016;23.098;2022-09-16T12:27:56;16.03;;;15.13;;
7613;SDS011;3848;42.016;23.098;2022-09-16T12:30:28;15.00;;;14.30;;
7613;SDS011;3848;42.016;23.098;2022-09-16T12:33:04;14.47;;;13.77;;
7613;SDS011;3848;42.016;23.098;2022-09-16T12:35:37;16.70;;;15.60;;
7613;SDS011;3848;42.016;23.098;2022-09-16T12:38:11;14.73;;;14.03;;
7613;SDS011;3848;42.016;23.098;2022-09-16T12:40:46;15.27;;;14.47;;
7613;SDS011;3848;42.016;23.098;2022-09-16T12:43:41;16.63;;;15.57;;
7613;SDS011;3848;42.016;23.098;2022-09-16T12:50:00;13.53;;;12.90;;
7613;SDS011;3848;42.016;23.098;2022-09-16T12:52:51;13.50;;;12.87;;
7613;SDS011;3848;42.016;23.098;2022-09-16T12:55:36;15.63;;;14.83;;
7613;SDS011;3848;42.016;23.098;2022-09-16T12:58:20;15.00;;;14.20;;
7613;SDS011;3848;42.016;23.098;2022-09-16T13:01:15;16.47;;;15.67;;
7613;SDS011;3848;42.016;23.098;2022-09-16T13:03:47;14.53;;;13.73;;
7613;SDS011;3848;42.016;23.098;2022-09-16T13:06:20;15.00;;;14.13;;
7613;SDS011;3848;42.016;23.098;2022-09-16T13:08:50;13.20;;;12.60;;
7613;SDS011;3848;42.016;23.098;2022-09-16T13:11:20;12.73;;;12.13;;
7613;SDS011;3848;42.016;23.098;2022-09-16T13:13:49;11.33;;;10.73;;
7613;SDS011;3848;42.016;23.098;2022-09-16T13:16:30;10.57;;;10.07;;
7613;SDS011;3848;42.016;23.098;2022-09-16T13:22:02;10.27;;;9.70;;
7613;SDS011;3848;42.016;23.098;2022-09-16T13:24:40;10.73;;;10.20;;
7613;SDS011;3848;42.016;23.098;2022-09-16T13:27:28;10.47;;;9.97;;
7613;SDS011;3848;42.016;23.098;2022-09-16T13:32:56;11.03;;;10.43;;
7613;SDS011;3848;42.016;23.098;2022-09-16T13:35:35;11.40;;;10.80;;
7613;SDS011;3848;42.016;23.098;2022-09-16T13:38:21;11.33;;;10.73;;
7613;SDS011;3848;42.016;23.098;2022-09-16T13:41:03;12.90;;;12.10;;
7613;SDS011;3848;42.016;23.098;2022-09-16T13:43:32;12.83;;;12.13;;
7613;SDS011;3848;42.016;23.098;2022-09-16T13:46:05;15.53;;;14.63;;
7613;SDS011;3848;42.016;23.098;2022-09-16T13:48:41;14.70;;;13.90;;
7613;SDS011;3848;42.016;23.098;2022-09-16T13:51:16;14.27;;;13.57;;
7613;SDS011;3848;42.016;23.098;2022-09-16T13:53:46;14.90;;;14.10;;
7613;SDS011;3848;42.016;23.098;2022-09-16T13:56:22;16.90;;;16.00;;
7613;SDS011;3848;42.016;23.098;2022-09-16T13:59:06;16.97;;;16.07;;
7613;SDS011;3848;42.016;23.098;2022-09-16T14:01:48;15.57;;;14.77;;
7613;SDS011;3848;42.016;23.098;2022-09-16T14:04:24;15.67;;;14.87;;
7613;SDS011;3848;42.016;23.098;2022-09-16T14:07:09;16.43;;;15.63;;
7613;SDS011;3848;42.016;23.098;2022-09-16T14:09:44;15.67;;;14.97;;
7613;SDS011;3848;42.016;23.098;2022-09-16T14:12:21;16.97;;;15.97;;
7613;SDS011;3848;42.016;23.098;2022-09-16T14:14:57;17.30;;;16.50;;
7613;SDS011;3848;42.016;23.098;2022-09-16T14:17:26;17.50;;;16.60;;
7613;SDS011;3848;42.016;23.098;2022-09-16T14:19:58;20.13;;;19.13;;
7613;SDS011;3848;42.016;23.098;2022-09-16T14:22:26;19.50;;;18.43;;
7613;SDS011;3848;42.016;23.098;2022-09-16T14:24:54;18.30;;;17.40;;
7613;SDS011;3848;42.016;23.098;2022-09-16T14:27:21;17.50;;;16.60;;
7613;SDS011;3848;42.016;23.098;2022-09-16T14:29:54;17.40;;;16.50;;
7613;SDS011;3848;42.016;23.098;2022-09-16T14:32:24;17.27;;;16.37;;
7613;SDS011;3848;42.016;23.098;2022-09-16T14:34:53;16.50;;;15.60;;
7613;SDS011;3848;42.016;23.098;2022-09-16T14:37:23;17.30;;;16.27;;
7613;SDS011;3848;42.016;23.098;2022-09-16T14:39:51;15.80;;;14.70;;
7613;SDS011;3848;42.016;23.098;2022-09-16T14:42:20;16.20;;;15.30;;
7613;SDS011;3848;42.016;23.098;2022-09-16T14:44:50;16.37;;;15.47;;
7613;SDS011;3848;42.016;23.098;2022-09-16T14:47:21;16.67;;;15.87;;
7613;SDS011;3848;42.016;23.098;2022-09-16T14:49:55;16.20;;;15.40;;
7613;SDS011;3848;42.016;23.098;2022-09-16T14:52:28;16.57;;;15.77;;
7613;SDS011;3848;42.016;23.098;2022-09-16T14:54:57;17.17;;;16.27;;
7613;SDS011;3848;42.016;23.098;2022-09-16T14:57:25;17.03;;;16.13;;
7613;SDS011;3848;42.016;23.098;2022-09-16T14:59:54;16.50;;;15.70;;
7613;SDS011;3848;42.016;23.098;2022-09-16T15:02:25;16.07;;;15.10;;
7613;SDS011;3848;42.016;23.098;2022-09-16T15:04:58;16.87;;;16.07;;
7613;SDS011;3848;42.016;23.098;2022-09-16T15:07:31;19.43;;;18.10;;
7613;SDS011;3848;42.016;23.098;2022-09-16T15:10:01;16.40;;;15.60;;
7613;SDS011;3848;42.016;23.098;2022-09-16T15:12:34;16.07;;;15.27;;
7613;SDS011;3848;42.016;23.098;2022-09-16T15:15:04;16.60;;;15.80;;
7613;SDS011;3848;42.016;23.098;2022-09-16T15:17:41;17.97;;;17.07;;
7613;SDS011;3848;42.016;23.098;2022-09-16T15:20:16;18.07;;;17.10;;
7613;SDS011;3848;42.016;23.098;2022-09-16T15:22:45;16.50;;;15.70;;
7613;SDS011;3848;42.016;23.098;2022-09-16T15:25:16;15.77;;;14.93;;
7613;SDS011;3848;42.016;23.098;2022-09-16T15:27:45;16.23;;;15.43;;